sensor_id;sensor_type;location;lat;lon;timestamp;temperature;humidity
20560;DHT22;10438;51.454;6.718;2023-09-30T00:00:59;13.10;99.90
20560;DHT22;10438;51.454;6.718;2023-09-30T00:03:26;13.10;99.90
20560;DHT22;10438;51.454;6.718;2023-09-30T00:05:51;13.10;99.90
20560;DHT22;10438;51.454;6.718;2023-09-30T00:08:17;13.10;99.90
20560;DHT22;10438;51.454;6.718;2023-09-30T00:10:42;13.10;99.90
20560;DHT22;10438;51.454;6.718;2023-09-30T00:13:08;13.10;99.90
20560;DHT22;10438;51.454;6.718;2023-09-30T00:15:34;13.10;99.90
20560;DHT22;10438;51.454;6.718;2023-09-30T00:18:00;13.10;99.90
20560;DHT22;10438;51.454;6.718;2023-09-30T00:20:29;13.10;99.90
20560;DHT22;10438;51.454;6.718;2023-09-30T00:22:55;13.10;99.90
20560;DHT22;10438;51.454;6.718;2023-09-30T00:25:21;13.10;99.90
20560;DHT22;10438;51.454;6.718;2023-09-30T00:27:47;13.10;99.90
20560;DHT22;10438;51.454;6.718;2023-09-30T00:30:13;13.10;99.90
20560;DHT22;10438;51.454;6.718;2023-09-30T00:32:38;13.20;99.90
20560;DHT22;10438;51.454;6.718;2023-09-30T00:35:05;13.20;99.90
20560;DHT22;10438;51.454;6.718;2023-09-30T00:37:40;13.20;99.90
20560;DHT22;10438;51.454;6.718;2023-09-30T00:40:07;13.20;99.90
20560;DHT22;10438;51.454;6.718;2023-09-30T00:42:40;13.20;99.90
20560;DHT22;10438;51.454;6.718;2023-09-30T00:45:07;13.30;99.90
20560;DHT22;10438;51.454;6.718;2023-09-30T00:47:35;13.30;99.90
20560;DHT22;10438;51.454;6.718;2023-09-30T00:50:02;13.30;99.90
20560;DHT22;10438;51.454;6.718;2023-09-30T00:52:30;13.40;99.90
20560;DHT22;10438;51.454;6.718;2023-09-30T00:54:57;13.30;99.90
20560;DHT22;10438;51.454;6.718;2023-09-30T00:57:23;13.40;99.90
20560;DHT22;10438;51.454;6.718;2023-09-30T00:59:51;13.40;99.90
20560;DHT22;10438;51.454;6.718;2023-09-30T01:02:18;13.40;99.90
20560;DHT22;10438;51.454;6.718;2023-09-30T01:04:44;13.40;99.90
20560;DHT22;10438;51.454;6.718;2023-09-30T01:07:09;13.40;99.90
20560;DHT22;10438;51.454;6.718;2023-09-30T01:09:36;13.40;99.90
20560;DHT22;10438;51.454;6.718;2023-09-30T01:12:02;13.40;99.90
20560;DHT22;10438;51.454;6.718;2023-09-30T01:14:30;13.40;99.90
20560;DHT22;10438;51.454;6.718;2023-09-30T01:16:56;13.40;99.90
20560;DHT22;10438;51.454;6.718;2023-09-30T01:19:23;13.40;99.90
20560;DHT22;10438;51.454;6.718;2023-09-30T01:21:53;13.40;99.90
20560;DHT22;10438;51.454;6.718;2023-09-30T01:24:20;13.50;99.90
20560;DHT22;10438;51.454;6.718;2023-09-30T01:26:46;13.40;99.90
20560;DHT22;10438;51.454;6.718;2023-09-30T01:29:11;13.40;99.90
20560;DHT22;10438;51.454;6.718;2023-09-30T01:31:37;13.40;99.90
20560;DHT22;10438;51.454;6.718;2023-09-30T01:34:04;13.50;99.90
20560;DHT22;10438;51.454;6.718;2023-09-30T01:36:29;13.50;99.90
20560;DHT22;10438;51.454;6.718;2023-09-30T01:38:55;13.50;99.90
20560;DHT22;10438;51.454;6.718;2023-09-30T01:41:20;13.50;99.90
20560;DHT22;10438;51.454;6.718;2023-09-30T01:43:46;13.50;99.90
20560;DHT22;10438;51.454;6.718;2023-09-30T01:46:12;13.50;99.90
20560;DHT22;10438;51.454;6.718;2023-09-30T01:48:38;13.50;99.90
20560;DHT22;10438;51.454;6.718;2023-09-30T01:51:04;13.50;99.90
20560;DHT22;10438;51.454;6.718;2023-09-30T01:53:29;13.40;99.90
20560;DHT22;10438;51.454;6.718;2023-09-30T01:55:55;13.40;99.90
20560;DHT22;10438;51.454;6.718;2023-09-30T01:58:20;13.30;99.90
20560;DHT22;10438;51.454;6.718;2023-09-30T02:00:46;13.30;99.90
20560;DHT22;10438;51.454;6.718;2023-09-30T02:03:11;13.20;99.90
20560;DHT22;10438;51.454;6.718;2023-09-30T02:05:39;13.20;99.90
20560;DHT22;10438;51.454;6.718;2023-09-30T02:08:05;13.20;99.90
20560;DHT22;10438;51.454;6.718;2023-09-30T02:10:32;13.10;99.90
20560;DHT22;10438;51.454;6.718;2023-09-30T02:12:59;13.10;99.90
20560;DHT22;10438;51.454;6.718;2023-09-30T02:15:25;13.00;99.90
20560;DHT22;10438;51.454;6.718;2023-09-30T02:17:51;13.00;99.90
20560;DHT22;10438;51.454;6.718;2023-09-30T02:20:17;12.90;99.90
20560;DHT22;10438;51.454;6.718;2023-09-30T02:22:45;12.90;99.90
20560;DHT22;10438;51.454;6.718;2023-09-30T02:25:12;12.90;99.90
20560;DHT22;10438;51.454;6.718;2023-09-30T02:27:39;12.90;99.90
20560;DHT22;10438;51.454;6.718;2023-09-30T02:30:07;12.90;99.90
20560;DHT22;10438;51.454;6.718;2023-09-30T02:32:33;12.90;99.90
20560;DHT22;10438;51.454;6.718;2023-09-30T02:34:58;12.90;99.90
20560;DHT22;10438;51.454;6.718;2023-09-30T02:37:24;12.90;99.90
20560;DHT22;10438;51.454;6.718;2023-09-30T02:39:50;12.90;99.90
20560;DHT22;10438;51.454;6.718;2023-09-30T02:42:16;12.90;99.90
20560;DHT22;10438;51.454;6.718;2023-09-30T02:44:41;12.90;99.90
20560;DHT22;10438;51.454;6.718;2023-09-30T02:47:07;12.90;99.90
20560;DHT22;10438;51.454;6.718;2023-09-30T02:49:34;12.90;99.90
20560;DHT22;10438;51.454;6.718;2023-09-30T02:51:59;12.90;99.90
20560;DHT22;10438;51.454;6.718;2023-09-30T02:54:25;12.90;99.90
20560;DHT22;10438;51.454;6.718;2023-09-30T02:56:50;12.90;99.90
20560;DHT22;10438;51.454;6.718;2023-09-30T02:59:17;12.90;99.90
20560;DHT22;10438;51.454;6.718;2023-09-30T03:01:44;12.90;99.90
20560;DHT22;10438;51.454;6.718;2023-09-30T03:04:10;12.90;99.90
20560;DHT22;10438;51.454;6.718;2023-09-30T03:06:38;12.90;99.90
20560;DHT22;10438;51.454;6.718;2023-09-30T03:09:04;12.90;99.90
20560;DHT22;10438;51.454;6.718;2023-09-30T03:11:30;12.80;99.90
20560;DHT22;10438;51.454;6.718;2023-09-30T03:13:56;12.80;99.90
20560;DHT22;10438;51.454;6.718;2023-09-30T03:16:23;12.80;99.90
20560;DHT22;10438;51.454;6.718;2023-09-30T03:18:50;12.80;99.90
20560;DHT22;10438;51.454;6.718;2023-09-30T03:21:15;12.80;99.90
20560;DHT22;10438;51.454;6.718;2023-09-30T03:23:42;12.80;99.90
20560;DHT22;10438;51.454;6.718;2023-09-30T03:26:08;12.80;99.90
20560;DHT22;10438;51.454;6.718;2023-09-30T03:28:36;12.80;99.90
20560;DHT22;10438;51.454;6.718;2023-09-30T03:31:03;12.80;99.90
20560;DHT22;10438;51.454;6.718;2023-09-30T03:33:33;12.80;99.90
20560;DHT22;10438;51.454;6.718;2023-09-30T03:35:59;12.80;99.90
20560;DHT22;10438;51.454;6.718;2023-09-30T03:38:26;12.90;99.90
20560;DHT22;10438;51.454;6.718;2023-09-30T03:40:52;12.90;99.90
20560;DHT22;10438;51.454;6.718;2023-09-30T03:43:20;12.90;99.90
20560;DHT22;10438;51.454;6.718;2023-09-30T03:45:46;12.90;99.90
20560;DHT22;10438;51.454;6.718;2023-09-30T03:48:12;12.90;99.90
20560;DHT22;10438;51.454;6.718;2023-09-30T03:50:38;12.80;99.90
20560;DHT22;10438;51.454;6.718;2023-09-30T03:53:04;12.80;99.90
20560;DHT22;10438;51.454;6.718;2023-09-30T03:55:33;12.80;99.90
20560;DHT22;10438;51.454;6.718;2023-09-30T03:57:59;12.80;99.90
20560;DHT22;10438;51.454;6.718;2023-09-30T04:00:24;12.80;99.90
20560;DHT22;10438;51.454;6.718;2023-09-30T04:02:51;12.80;99.90
20560;DHT22;10438;51.454;6.718;2023-09-30T04:05:20;12.70;99.90
20560;DHT22;10438;51.454;6.718;2023-09-30T04:07:51;12.70;99.90
20560;DHT22;10438;51.454;6.718;2023-09-30T04:10:17;12.70;99.90
20560;DHT22;10438;51.454;6.718;2023-09-30T04:12:43;12.70;99.90
20560;DHT22;10438;51.454;6.718;2023-09-30T04:15:08;12.70;99.90
20560;DHT22;10438;51.454;6.718;2023-09-30T04:17:37;12.60;99.90
20560;DHT22;10438;51.454;6.718;2023-09-30T04:20:07;12.60;99.90
20560;DHT22;10438;51.454;6.718;2023-09-30T04:22:41;12.70;99.90
20560;DHT22;10438;51.454;6.718;2023-09-30T04:25:11;12.60;99.90
20560;DHT22;10438;51.454;6.718;2023-09-30T04:27:37;12.60;99.90
20560;DHT22;10438;51.454;6.718;2023-09-30T04:30:04;12.60;99.90
20560;DHT22;10438;51.454;6.718;2023-09-30T04:32:38;12.60;99.90
20560;DHT22;10438;51.454;6.718;2023-09-30T04:35:07;12.60;99.90
20560;DHT22;10438;51.454;6.718;2023-09-30T04:37:36;12.60;99.90
20560;DHT22;10438;51.454;6.718;2023-09-30T04:40:09;12.60;99.90
20560;DHT22;10438;51.454;6.718;2023-09-30T04:42:41;12.50;99.90
20560;DHT22;10438;51.454;6.718;2023-09-30T04:45:08;12.50;99.90
20560;DHT22;10438;51.454;6.718;2023-09-30T04:47:35;12.60;99.90
20560;DHT22;10438;51.454;6.718;2023-09-30T04:50:01;12.50;99.90
20560;DHT22;10438;51.454;6.718;2023-09-30T04:52:32;12.50;99.90
20560;DHT22;10438;51.454;6.718;2023-09-30T04:54:58;12.50;99.90
20560;DHT22;10438;51.454;6.718;2023-09-30T04:57:25;12.50;99.90
20560;DHT22;10438;51.454;6.718;2023-09-30T04:59:51;12.50;99.90
20560;DHT22;10438;51.454;6.718;2023-09-30T05:02:16;12.50;99.90
20560;DHT22;10438;51.454;6.718;2023-09-30T05:04:42;12.50;99.90
20560;DHT22;10438;51.454;6.718;2023-09-30T05:07:08;12.40;99.90
20560;DHT22;10438;51.454;6.718;2023-09-30T05:09:34;12.40;99.90
20560;DHT22;10438;51.454;6.718;2023-09-30T05:11:59;12.40;99.90
20560;DHT22;10438;51.454;6.718;2023-09-30T05:14:25;12.40;99.90
20560;DHT22;10438;51.454;6.718;2023-09-30T05:16:51;12.40;99.90
20560;DHT22;10438;51.454;6.718;2023-09-30T05:19:16;12.40;99.90
20560;DHT22;10438;51.454;6.718;2023-09-30T05:21:42;12.40;99.90
20560;DHT22;10438;51.454;6.718;2023-09-30T05:24:08;12.30;99.90
20560;DHT22;10438;51.454;6.718;2023-09-30T05:26:34;12.30;99.90
20560;DHT22;10438;51.454;6.718;2023-09-30T05:28:59;12.30;99.90
20560;DHT22;10438;51.454;6.718;2023-09-30T05:31:25;12.30;99.90
20560;DHT22;10438;51.454;6.718;2023-09-30T05:33:50;12.30;99.90
20560;DHT22;10438;51.454;6.718;2023-09-30T05:36:16;12.30;99.90
20560;DHT22;10438;51.454;6.718;2023-09-30T05:38:41;12.30;99.90
20560;DHT22;10438;51.454;6.718;2023-09-30T05:41:08;12.30;99.90
20560;DHT22;10438;51.454;6.718;2023-09-30T05:43:33;12.30;99.90
20560;DHT22;10438;51.454;6.718;2023-09-30T05:45:59;12.20;99.90
20560;DHT22;10438;51.454;6.718;2023-09-30T05:48:24;12.30;99.90
20560;DHT22;10438;51.454;6.718;2023-09-30T05:50:50;12.30;99.90
20560;DHT22;10438;51.454;6.718;2023-09-30T05:53:15;12.30;99.90
20560;DHT22;10438;51.454;6.718;2023-09-30T05:55:42;12.30;99.90
20560;DHT22;10438;51.454;6.718;2023-09-30T05:58:15;12.30;99.90
20560;DHT22;10438;51.454;6.718;2023-09-30T06:00:44;12.30;99.90
20560;DHT22;10438;51.454;6.718;2023-09-30T06:03:09;12.30;99.90
20560;DHT22;10438;51.454;6.718;2023-09-30T06:05:39;12.30;99.90
20560;DHT22;10438;51.454;6.718;2023-09-30T06:08:05;12.30;99.90
20560;DHT22;10438;51.454;6.718;2023-09-30T06:10:34;12.30;99.90
20560;DHT22;10438;51.454;6.718;2023-09-30T06:13:01;12.30;99.90
20560;DHT22;10438;51.454;6.718;2023-09-30T06:15:27;12.40;99.90
20560;DHT22;10438;51.454;6.718;2023-09-30T06:17:57;12.40;99.90
20560;DHT22;10438;51.454;6.718;2023-09-30T06:20:23;12.40;99.90
20560;DHT22;10438;51.454;6.718;2023-09-30T06:22:51;12.30;99.90
20560;DHT22;10438;51.454;6.718;2023-09-30T06:25:19;12.40;99.90
20560;DHT22;10438;51.454;6.718;2023-09-30T06:27:46;12.40;99.90
20560;DHT22;10438;51.454;6.718;2023-09-30T06:30:13;12.50;99.90
20560;DHT22;10438;51.454;6.718;2023-09-30T06:32:39;12.50;99.90
20560;DHT22;10438;51.454;6.718;2023-09-30T06:35:06;12.50;99.90
20560;DHT22;10438;51.454;6.718;2023-09-30T06:37:32;12.50;99.90
20560;DHT22;10438;51.454;6.718;2023-09-30T06:39:58;12.50;99.90
20560;DHT22;10438;51.454;6.718;2023-09-30T06:42:24;12.50;99.90
20560;DHT22;10438;51.454;6.718;2023-09-30T06:44:50;12.60;99.90
20560;DHT22;10438;51.454;6.718;2023-09-30T06:47:16;12.60;99.90
20560;DHT22;10438;51.454;6.718;2023-09-30T06:49:41;12.60;99.90
20560;DHT22;10438;51.454;6.718;2023-09-30T06:52:07;12.60;99.90
20560;DHT22;10438;51.454;6.718;2023-09-30T06:54:33;12.70;99.90
20560;DHT22;10438;51.454;6.718;2023-09-30T06:56:58;12.80;99.90
20560;DHT22;10438;51.454;6.718;2023-09-30T06:59:24;12.80;99.90
20560;DHT22;10438;51.454;6.718;2023-09-30T07:01:50;12.80;99.90
20560;DHT22;10438;51.454;6.718;2023-09-30T07:04:16;12.90;99.90
20560;DHT22;10438;51.454;6.718;2023-09-30T07:06:41;12.90;99.90
20560;DHT22;10438;51.454;6.718;2023-09-30T07:09:07;12.90;99.90
20560;DHT22;10438;51.454;6.718;2023-09-30T07:11:32;13.00;99.90
20560;DHT22;10438;51.454;6.718;2023-09-30T07:13:58;13.00;99.90
20560;DHT22;10438;51.454;6.718;2023-09-30T07:16:24;13.10;99.90
20560;DHT22;10438;51.454;6.718;2023-09-30T07:18:50;13.20;99.90
20560;DHT22;10438;51.454;6.718;2023-09-30T07:21:18;13.30;99.90
20560;DHT22;10438;51.454;6.718;2023-09-30T07:23:44;13.30;99.90
20560;DHT22;10438;51.454;6.718;2023-09-30T07:26:09;13.40;99.90
20560;DHT22;10438;51.454;6.718;2023-09-30T07:28:35;13.50;99.90
20560;DHT22;10438;51.454;6.718;2023-09-30T07:31:01;13.60;99.90
20560;DHT22;10438;51.454;6.718;2023-09-30T07:33:26;13.60;99.90
20560;DHT22;10438;51.454;6.718;2023-09-30T07:35:52;13.70;99.90
20560;DHT22;10438;51.454;6.718;2023-09-30T07:38:17;13.80;99.90
20560;DHT22;10438;51.454;6.718;2023-09-30T07:40:43;14.00;99.90
20560;DHT22;10438;51.454;6.718;2023-09-30T07:43:09;14.30;99.90
20560;DHT22;10438;51.454;6.718;2023-09-30T07:45:35;14.70;99.90
20560;DHT22;10438;51.454;6.718;2023-09-30T07:48:01;15.10;99.90
20560;DHT22;10438;51.454;6.718;2023-09-30T07:50:29;15.40;99.90
20560;DHT22;10438;51.454;6.718;2023-09-30T07:52:55;15.50;99.90
20560;DHT22;10438;51.454;6.718;2023-09-30T07:55:20;15.30;99.90
20560;DHT22;10438;51.454;6.718;2023-09-30T07:57:46;15.00;99.90
20560;DHT22;10438;51.454;6.718;2023-09-30T08:00:12;14.90;99.90
20560;DHT22;10438;51.454;6.718;2023-09-30T08:02:42;14.70;99.90
20560;DHT22;10438;51.454;6.718;2023-09-30T08:05:08;14.60;99.90
20560;DHT22;10438;51.454;6.718;2023-09-30T08:07:34;14.50;99.90
20560;DHT22;10438;51.454;6.718;2023-09-30T08:10:00;14.50;99.90
20560;DHT22;10438;51.454;6.718;2023-09-30T08:12:25;14.50;99.90
20560;DHT22;10438;51.454;6.718;2023-09-30T08:14:51;14.50;99.90
20560;DHT22;10438;51.454;6.718;2023-09-30T08:17:19;14.60;99.90
20560;DHT22;10438;51.454;6.718;2023-09-30T08:19:45;14.60;99.90
20560;DHT22;10438;51.454;6.718;2023-09-30T08:22:13;14.60;99.90
20560;DHT22;10438;51.454;6.718;2023-09-30T08:24:39;14.60;99.90
20560;DHT22;10438;51.454;6.718;2023-09-30T08:27:04;14.70;99.90
20560;DHT22;10438;51.454;6.718;2023-09-30T08:29:33;14.80;99.90
20560;DHT22;10438;51.454;6.718;2023-09-30T08:32:01;14.80;99.90
20560;DHT22;10438;51.454;6.718;2023-09-30T08:34:27;14.80;99.90
20560;DHT22;10438;51.454;6.718;2023-09-30T08:36:52;14.90;99.90
20560;DHT22;10438;51.454;6.718;2023-09-30T08:39:18;15.00;99.90
20560;DHT22;10438;51.454;6.718;2023-09-30T08:41:43;15.10;99.90
20560;DHT22;10438;51.454;6.718;2023-09-30T08:44:10;15.20;99.90
20560;DHT22;10438;51.454;6.718;2023-09-30T08:46:37;15.30;99.90
20560;DHT22;10438;51.454;6.718;2023-09-30T08:49:04;15.40;99.90
20560;DHT22;10438;51.454;6.718;2023-09-30T08:51:30;15.50;99.90
20560;DHT22;10438;51.454;6.718;2023-09-30T08:53:57;15.80;99.90
20560;DHT22;10438;51.454;6.718;2023-09-30T08:56:26;16.30;99.90
20560;DHT22;10438;51.454;6.718;2023-09-30T08:58:57;16.70;99.90
20560;DHT22;10438;51.454;6.718;2023-09-30T09:01:25;17.40;99.90
20560;DHT22;10438;51.454;6.718;2023-09-30T09:03:51;17.80;99.90
20560;DHT22;10438;51.454;6.718;2023-09-30T09:06:20;18.20;99.90
20560;DHT22;10438;51.454;6.718;2023-09-30T09:08:46;18.30;99.90
20560;DHT22;10438;51.454;6.718;2023-09-30T09:11:12;18.50;99.90
20560;DHT22;10438;51.454;6.718;2023-09-30T09:14:05;18.30;99.90
20560;DHT22;10438;51.454;6.718;2023-09-30T09:16:32;17.90;99.90
20560;DHT22;10438;51.454;6.718;2023-09-30T09:18:58;17.90;99.90
20560;DHT22;10438;51.454;6.718;2023-09-30T09:21:23;17.80;99.90
20560;DHT22;10438;51.454;6.718;2023-09-30T09:23:51;18.10;99.90
20560;DHT22;10438;51.454;6.718;2023-09-30T09:26:27;18.30;99.90
20560;DHT22;10438;51.454;6.718;2023-09-30T09:28:57;18.50;99.90
20560;DHT22;10438;51.454;6.718;2023-09-30T09:31:24;18.90;99.90
20560;DHT22;10438;51.454;6.718;2023-09-30T09:33:51;19.20;99.90
20560;DHT22;10438;51.454;6.718;2023-09-30T09:36:17;19.60;99.90
20560;DHT22;10438;51.454;6.718;2023-09-30T09:38:52;19.80;99.90
20560;DHT22;10438;51.454;6.718;2023-09-30T09:41:19;20.10;99.90
20560;DHT22;10438;51.454;6.718;2023-09-30T09:43:47;20.40;99.90
20560;DHT22;10438;51.454;6.718;2023-09-30T09:46:13;20.60;99.90
20560;DHT22;10438;51.454;6.718;2023-09-30T09:48:39;20.90;99.90
20560;DHT22;10438;51.454;6.718;2023-09-30T09:51:05;21.10;99.90
20560;DHT22;10438;51.454;6.718;2023-09-30T09:53:35;21.40;99.90
20560;DHT22;10438;51.454;6.718;2023-09-30T09:56:04;21.20;99.90
20560;DHT22;10438;51.454;6.718;2023-09-30T09:58:33;20.60;99.90
20560;DHT22;10438;51.454;6.718;2023-09-30T10:01:01;19.70;99.90
20560;DHT22;10438;51.454;6.718;2023-09-30T10:03:26;19.70;99.90
20560;DHT22;10438;51.454;6.718;2023-09-30T10:05:53;19.40;99.90
20560;DHT22;10438;51.454;6.718;2023-09-30T10:08:21;19.70;99.90
20560;DHT22;10438;51.454;6.718;2023-09-30T10:10:48;19.50;99.90
20560;DHT22;10438;51.454;6.718;2023-09-30T10:19:12;19.00;99.90
20560;DHT22;10438;51.454;6.718;2023-09-30T10:21:38;19.90;99.90
20560;DHT22;10438;51.454;6.718;2023-09-30T10:35:19;20.30;99.90
20560;DHT22;10438;51.454;6.718;2023-09-30T10:37:46;20.20;99.90
20560;DHT22;10438;51.454;6.718;2023-09-30T10:40:28;20.10;99.90
20560;DHT22;10438;51.454;6.718;2023-09-30T10:42:54;19.90;99.90
20560;DHT22;10438;51.454;6.718;2023-09-30T10:45:57;19.80;99.90
20560;DHT22;10438;51.454;6.718;2023-09-30T10:51:17;20.60;99.90
20560;DHT22;10438;51.454;6.718;2023-09-30T10:53:48;21.40;99.90
20560;DHT22;10438;51.454;6.718;2023-09-30T10:56:15;21.70;99.90
20560;DHT22;10438;51.454;6.718;2023-09-30T10:58:45;21.10;99.90
20560;DHT22;10438;51.454;6.718;2023-09-30T11:01:12;20.60;99.90
20560;DHT22;10438;51.454;6.718;2023-09-30T11:03:39;20.10;99.90
20560;DHT22;10438;51.454;6.718;2023-09-30T11:06:05;19.80;99.90
20560;DHT22;10438;51.454;6.718;2023-09-30T11:08:32;19.60;99.90
20560;DHT22;10438;51.454;6.718;2023-09-30T11:10:58;19.30;99.90
20560;DHT22;10438;51.454;6.718;2023-09-30T11:13:34;19.00;99.90
20560;DHT22;10438;51.454;6.718;2023-09-30T11:16:03;18.70;99.90
20560;DHT22;10438;51.454;6.718;2023-09-30T11:18:36;18.70;99.90
20560;DHT22;10438;51.454;6.718;2023-09-30T11:21:11;19.30;99.90
20560;DHT22;10438;51.454;6.718;2023-09-30T11:23:38;19.80;99.90
20560;DHT22;10438;51.454;6.718;2023-09-30T11:26:04;20.10;99.90
20560;DHT22;10438;51.454;6.718;2023-09-30T11:28:40;19.90;99.90
20560;DHT22;10438;51.454;6.718;2023-09-30T11:31:08;19.50;99.90
20560;DHT22;10438;51.454;6.718;2023-09-30T11:33:56;19.30;99.90
20560;DHT22;10438;51.454;6.718;2023-09-30T11:36:26;19.00;99.90
20560;DHT22;10438;51.454;6.718;2023-09-30T11:38:52;18.80;99.90
20560;DHT22;10438;51.454;6.718;2023-09-30T11:41:20;18.80;99.90
20560;DHT22;10438;51.454;6.718;2023-09-30T11:46:54;18.80;99.90
20560;DHT22;10438;51.454;6.718;2023-09-30T11:49:25;18.80;99.90
20560;DHT22;10438;51.454;6.718;2023-09-30T11:51:52;18.90;99.90
20560;DHT22;10438;51.454;6.718;2023-09-30T11:54:18;18.90;99.90
20560;DHT22;10438;51.454;6.718;2023-09-30T11:56:43;19.00;99.90
20560;DHT22;10438;51.454;6.718;2023-09-30T11:59:10;19.20;99.90
20560;DHT22;10438;51.454;6.718;2023-09-30T12:01:37;19.20;99.90
20560;DHT22;10438;51.454;6.718;2023-09-30T12:04:03;19.20;99.90
20560;DHT22;10438;51.454;6.718;2023-09-30T12:06:31;19.00;99.90
20560;DHT22;10438;51.454;6.718;2023-09-30T12:08:57;18.90;99.90
20560;DHT22;10438;51.454;6.718;2023-09-30T12:11:22;18.90;99.90
20560;DHT22;10438;51.454;6.718;2023-09-30T12:13:49;18.80;99.90
20560;DHT22;10438;51.454;6.718;2023-09-30T12:16:19;18.70;99.90
20560;DHT22;10438;51.454;6.718;2023-09-30T12:18:45;18.60;99.90
20560;DHT22;10438;51.454;6.718;2023-09-30T12:21:11;18.60;99.90
20560;DHT22;10438;51.454;6.718;2023-09-30T12:23:39;18.70;99.90
20560;DHT22;10438;51.454;6.718;2023-09-30T12:26:04;19.00;99.90
20560;DHT22;10438;51.454;6.718;2023-09-30T12:28:33;19.50;99.90
20560;DHT22;10438;51.454;6.718;2023-09-30T12:31:00;20.20;99.90
20560;DHT22;10438;51.454;6.718;2023-09-30T12:33:30;20.70;99.90
20560;DHT22;10438;51.454;6.718;2023-09-30T12:35:56;20.90;99.90
20560;DHT22;10438;51.454;6.718;2023-09-30T12:38:24;21.10;99.90
20560;DHT22;10438;51.454;6.718;2023-09-30T12:40:51;21.20;99.90
20560;DHT22;10438;51.454;6.718;2023-09-30T12:43:17;21.20;99.90
20560;DHT22;10438;51.454;6.718;2023-09-30T12:45:43;21.40;99.90
20560;DHT22;10438;51.454;6.718;2023-09-30T12:48:10;21.50;99.90
20560;DHT22;10438;51.454;6.718;2023-09-30T12:50:36;21.50;99.90
20560;DHT22;10438;51.454;6.718;2023-09-30T12:53:01;21.20;99.90
20560;DHT22;10438;51.454;6.718;2023-09-30T12:55:27;21.10;99.90
20560;DHT22;10438;51.454;6.718;2023-09-30T12:57:54;21.20;99.90
20560;DHT22;10438;51.454;6.718;2023-09-30T13:00:20;21.20;99.90
20560;DHT22;10438;51.454;6.718;2023-09-30T13:02:47;21.20;99.90
20560;DHT22;10438;51.454;6.718;2023-09-30T13:05:13;21.10;99.90
20560;DHT22;10438;51.454;6.718;2023-09-30T13:07:40;21.10;99.90
20560;DHT22;10438;51.454;6.718;2023-09-30T13:10:06;21.20;99.90
20560;DHT22;10438;51.454;6.718;2023-09-30T13:12:36;21.50;99.90
20560;DHT22;10438;51.454;6.718;2023-09-30T13:15:01;21.50;99.90
20560;DHT22;10438;51.454;6.718;2023-09-30T13:17:27;21.30;99.90
20560;DHT22;10438;51.454;6.718;2023-09-30T13:19:54;21.40;99.90
20560;DHT22;10438;51.454;6.718;2023-09-30T13:22:20;21.20;99.90
20560;DHT22;10438;51.454;6.718;2023-09-30T13:24:46;20.90;99.90
20560;DHT22;10438;51.454;6.718;2023-09-30T13:27:12;20.90;99.90
20560;DHT22;10438;51.454;6.718;2023-09-30T13:29:37;20.90;99.90
20560;DHT22;10438;51.454;6.718;2023-09-30T13:32:03;20.70;99.90
20560;DHT22;10438;51.454;6.718;2023-09-30T13:34:29;20.80;99.90
20560;DHT22;10438;51.454;6.718;2023-09-30T13:36:55;20.80;99.90
20560;DHT22;10438;51.454;6.718;2023-09-30T13:39:21;20.80;99.90
20560;DHT22;10438;51.454;6.718;2023-09-30T13:41:47;21.00;99.90
20560;DHT22;10438;51.454;6.718;2023-09-30T13:44:13;21.20;99.90
20560;DHT22;10438;51.454;6.718;2023-09-30T13:46:39;21.40;99.90
20560;DHT22;10438;51.454;6.718;2023-09-30T13:49:04;21.40;99.90
20560;DHT22;10438;51.454;6.718;2023-09-30T13:51:30;21.60;99.90
20560;DHT22;10438;51.454;6.718;2023-09-30T13:53:55;21.80;99.90
20560;DHT22;10438;51.454;6.718;2023-09-30T13:56:21;21.90;99.90
20560;DHT22;10438;51.454;6.718;2023-09-30T13:58:47;21.80;99.90
20560;DHT22;10438;51.454;6.718;2023-09-30T14:01:14;21.50;99.90
20560;DHT22;10438;51.454;6.718;2023-09-30T14:03:40;21.10;99.90
20560;DHT22;10438;51.454;6.718;2023-09-30T14:06:10;20.80;99.90
20560;DHT22;10438;51.454;6.718;2023-09-30T14:08:36;20.50;99.90
20560;DHT22;10438;51.454;6.718;2023-09-30T14:11:02;20.40;99.90
20560;DHT22;10438;51.454;6.718;2023-09-30T14:13:28;20.30;99.90
20560;DHT22;10438;51.454;6.718;2023-09-30T14:15:53;20.20;99.90
20560;DHT22;10438;51.454;6.718;2023-09-30T14:18:19;20.20;99.90
20560;DHT22;10438;51.454;6.718;2023-09-30T14:20:44;20.20;99.90
20560;DHT22;10438;51.454;6.718;2023-09-30T14:23:11;20.10;99.90
20560;DHT22;10438;51.454;6.718;2023-09-30T14:25:37;20.10;99.90
20560;DHT22;10438;51.454;6.718;2023-09-30T14:28:02;20.00;99.90
20560;DHT22;10438;51.454;6.718;2023-09-30T14:30:28;20.00;99.90
20560;DHT22;10438;51.454;6.718;2023-09-30T14:32:54;20.00;99.90
20560;DHT22;10438;51.454;6.718;2023-09-30T14:35:20;19.90;99.90
20560;DHT22;10438;51.454;6.718;2023-09-30T14:37:45;19.90;99.90
20560;DHT22;10438;51.454;6.718;2023-09-30T14:40:11;19.80;99.90
20560;DHT22;10438;51.454;6.718;2023-09-30T14:42:37;19.80;99.90
20560;DHT22;10438;51.454;6.718;2023-09-30T14:45:03;19.80;99.90
20560;DHT22;10438;51.454;6.718;2023-09-30T14:47:29;19.80;99.90
20560;DHT22;10438;51.454;6.718;2023-09-30T14:49:54;19.70;99.90
20560;DHT22;10438;51.454;6.718;2023-09-30T14:52:20;19.70;99.90
20560;DHT22;10438;51.454;6.718;2023-09-30T14:54:45;19.70;99.90
20560;DHT22;10438;51.454;6.718;2023-09-30T14:57:11;19.80;99.90
20560;DHT22;10438;51.454;6.718;2023-09-30T14:59:39;19.90;99.90
20560;DHT22;10438;51.454;6.718;2023-09-30T15:02:06;20.10;99.90
20560;DHT22;10438;51.454;6.718;2023-09-30T15:04:34;20.10;99.90
20560;DHT22;10438;51.454;6.718;2023-09-30T15:07:00;20.20;99.90
20560;DHT22;10438;51.454;6.718;2023-09-30T15:09:26;20.00;99.90
20560;DHT22;10438;51.454;6.718;2023-09-30T15:11:52;19.90;99.90
20560;DHT22;10438;51.454;6.718;2023-09-30T15:14:18;19.70;99.90
20560;DHT22;10438;51.454;6.718;2023-09-30T15:16:44;19.50;99.90
20560;DHT22;10438;51.454;6.718;2023-09-30T15:19:10;19.40;99.90
20560;DHT22;10438;51.454;6.718;2023-09-30T15:21:36;19.30;99.90
20560;DHT22;10438;51.454;6.718;2023-09-30T15:24:02;19.30;99.90
20560;DHT22;10438;51.454;6.718;2023-09-30T15:26:28;19.20;99.90
20560;DHT22;10438;51.454;6.718;2023-09-30T15:28:54;19.20;99.90
20560;DHT22;10438;51.454;6.718;2023-09-30T15:31:20;19.10;99.90
20560;DHT22;10438;51.454;6.718;2023-09-30T15:33:45;19.10;99.90
20560;DHT22;10438;51.454;6.718;2023-09-30T15:36:15;19.10;99.90
20560;DHT22;10438;51.454;6.718;2023-09-30T15:38:45;19.00;99.90
20560;DHT22;10438;51.454;6.718;2023-09-30T15:41:12;19.00;99.90
20560;DHT22;10438;51.454;6.718;2023-09-30T15:43:38;18.90;99.90
20560;DHT22;10438;51.454;6.718;2023-09-30T15:46:04;18.80;99.90
20560;DHT22;10438;51.454;6.718;2023-09-30T15:48:30;18.80;99.90
20560;DHT22;10438;51.454;6.718;2023-09-30T15:50:56;18.70;99.90